Weather History for KEIK - August, 2013

Change the Weather History Date:

Monday, August 19, 2013

  Actual Average (KBJC) Record (KBJC)
Temperature  
Mean Temperature 74 °F -  
Max Temperature 95 °F 83 °F 94 °F (1986)
Min Temperature 53 °F 59 °F 49 °F (1985)
Cooling Degree Days 9    
Growing Degree Days 24 (Base 50)    
Moisture  
Dew Point 41 °F    
Average Humidity 34    
Maximum Humidity 77    
Minimum Humidity 10    
Precipitation  
Precipitation 0.00 in - - ()
Sea Level Pressure  
Sea Level Pressure 30.11 in    
Wind  
Wind Speed 3 mph (SSE)    
Max Wind Speed 13 mph    
Max Gust Speed 17 mph    
Visibility 10 miles    
Events      
Averages and records for this station are not official NWS values.
T = Trace of Precipitation, MM = Missing Value Source: NWS Daily Summary

Daily Weather History Graph

Daily Weather History Graph

Search for Another Location

Airport or City:

Trip Planner

Search our weather history database for the weather conditions in past years. The results will help you decide how hot, cold, wet, or windy it might be!

Date:

Astronomy

Aug. 19, 2013 Rise Set
Actual Time 6:15 AM MDT 7:50 PM MDT
Civil Twilight 5:47 AM MDT 8:19 PM MDT
Nautical Twilight 5:12 AM MDT 8:53 PM MDT
Astronomical Twilight 4:35 AM MDT 9:30 PM MDT
Moon 6:43 PM MDT (8/19) 4:38 AM MDT (8/19)
Length of Visible Light 14h 32m
Length of Day
13h 34m
Waxing Gibbous, 97% of the Moon is Illuminated
Aug 19
Waxing Gibbous
Aug 20
Full
Aug 28
Last Quarter
Sep 5
New
Sep 12
First Quarter

Hourly Weather History & Observations

Time (MDT) Temp. Dew Point Humidity Pressure Visibility Wind Dir Wind Speed Gust Speed Precip Events Conditions
12:14 AM 67.8 °F 47.1 °F 47% 30.16 in 10.0 mi Calm Calm - N/A   Clear
12:34 AM 65.5 °F 47.1 °F 51% 30.16 in 10.0 mi ESE 3.5 mph - N/A   Clear
12:54 AM 66.0 °F 45.0 °F 47% 30.16 in 10.0 mi SSW 3.5 mph - N/A   Clear
1:14 AM 66.0 °F 44.6 °F 46% 30.16 in 10.0 mi Calm Calm - N/A   Clear
1:34 AM 63.9 °F 44.8 °F 50% 30.15 in 10.0 mi Calm Calm - N/A   Clear
1:54 AM 64.0 °F 45.0 °F 50% 30.14 in 10.0 mi SSW 3.5 mph - N/A   Clear
2:14 AM 62.1 °F 46.4 °F 56% 30.15 in 10.0 mi WNW 3.5 mph - N/A   Clear
2:34 AM 61.5 °F 45.5 °F 56% 30.14 in 10.0 mi Calm Calm - N/A   Clear
2:54 AM 60.8 °F 45.5 °F 57% 30.14 in 10.0 mi Calm Calm - N/A   Clear
3:14 AM 58.3 °F 45.7 °F 63% 30.14 in 10.0 mi Calm Calm - N/A   Clear
3:34 AM 58.3 °F 46.2 °F 64% 30.13 in 10.0 mi Calm Calm - N/A   Clear
3:54 AM 57.9 °F 45.5 °F 63% 30.13 in 10.0 mi Calm Calm - N/A   Clear
4:14 AM 57.4 °F 45.3 °F 64% 30.13 in 10.0 mi Calm Calm - N/A   Clear
4:34 AM 56.7 °F 46.4 °F 69% 30.13 in 10.0 mi Calm Calm - N/A   Clear
4:54 AM 54.5 °F 45.9 °F 73% 30.13 in 10.0 mi Calm Calm - N/A   Clear
5:14 AM 55.0 °F 45.9 °F 71% 30.13 in 10.0 mi Calm Calm - N/A   Clear
5:34 AM 53.8 °F 45.7 °F 74% 30.13 in 10.0 mi Calm Calm - N/A   Clear
5:54 AM 55.4 °F 45.7 °F 70% 30.14 in 10.0 mi Calm Calm - N/A   Clear
6:14 AM 55.4 °F 46.2 °F 71% 30.14 in 10.0 mi Calm Calm - N/A   Clear
6:34 AM 54.0 °F 46.8 °F 77% 30.14 in 10.0 mi SSW 3.5 mph - N/A   Clear
6:54 AM 55.2 °F 47.8 °F 76% 30.14 in 10.0 mi South 3.5 mph - N/A   Clear
7:14 AM 58.3 °F 49.1 °F 71% 30.15 in 10.0 mi Calm Calm - N/A   Clear
7:34 AM 61.7 °F 49.3 °F 64% 30.15 in 10.0 mi Calm Calm - N/A   Clear
7:54 AM 65.3 °F 48.9 °F 55% 30.16 in 10.0 mi Calm Calm - N/A   Clear
8:14 AM 68.4 °F 50.0 °F 52% 30.16 in 10.0 mi Calm Calm - N/A   Clear
8:34 AM 71.6 °F 49.8 °F 46% 30.16 in 10.0 mi Calm Calm - N/A   Clear
8:54 AM 74.1 °F 49.1 °F 41% 30.16 in 10.0 mi Calm Calm - N/A   Clear
9:14 AM 76.8 °F 46.6 °F 34% 30.16 in 10.0 mi SSE 3.5 mph - N/A   Clear
9:34 AM 77.9 °F 45.7 °F 32% 30.16 in 10.0 mi Calm Calm - N/A   Clear
9:54 AM 79.9 °F 47.3 °F 32% 30.16 in 10.0 mi SSE 5.8 mph - N/A   Clear
10:14 AM 82.2 °F 45.9 °F 28% 30.16 in 10.0 mi South 3.5 mph - N/A   Clear
10:34 AM 84.2 °F 44.1 °F 24% 30.15 in 10.0 mi Calm Calm - N/A   Clear
10:54 AM 86.7 °F 42.8 °F 21% 30.15 in 10.0 mi ESE 4.6 mph - N/A   Clear
11:14 AM 88.7 °F 41.5 °F 19% 30.15 in 10.0 mi Calm Calm - N/A   Clear
11:34 AM 89.8 °F 38.8 °F 17% 30.15 in 10.0 mi East 6.9 mph - N/A   Clear
11:54 AM 90.9 °F 38.5 °F 16% 30.14 in 10.0 mi ESE 6.9 mph - N/A   Clear
12:14 PM 91.8 °F 35.6 °F 14% 30.14 in 10.0 mi SSE 4.6 mph - N/A   Clear
12:34 PM 91.6 °F 36.0 °F 14% 30.13 in 7.0 mi ENE 10.4 mph - N/A   Clear
12:54 PM 91.9 °F 34.3 °F 13% 30.13 in 10.0 mi Calm Calm - N/A   Clear
1:14 PM 92.1 °F 34.3 °F 13% 30.13 in 10.0 mi East 5.8 mph - N/A   Clear
1:34 PM 93.7 °F 34.0 °F 12% 30.12 in 10.0 mi South 4.6 mph - N/A   Clear
1:54 PM 93.4 °F 34.0 °F 12% 30.12 in 10.0 mi South 4.6 mph - N/A   Clear
2:14 PM 93.6 °F 32.5 °F 12% 30.11 in 10.0 mi North 3.5 mph - N/A   Clear
2:34 PM 93.6 °F 34.0 °F 12% 30.11 in 10.0 mi SW 3.5 mph - N/A   Clear
2:54 PM 94.5 °F 32.5 °F 11% 30.10 in 10.0 mi South 3.5 mph - N/A   Clear
3:14 PM 95.9 °F 32.5 °F 11% 30.09 in 10.0 mi SSW 6.9 mph - N/A   Clear
3:34 PM 94.3 °F 32.0 °F 11% 30.09 in 10.0 mi SSW 4.6 mph - N/A   Clear
3:54 PM 94.1 °F 31.8 °F 11% 30.08 in 10.0 mi Calm Calm - N/A   Clear
4:14 PM 92.3 °F 33.4 °F 12% 30.08 in 10.0 mi WNW 3.5 mph - N/A   Clear
4:34 PM 94.6 °F 31.1 °F 11% 30.07 in 10.0 mi Calm Calm - N/A   Clear
4:54 PM 95.4 °F 31.8 °F 11% 30.06 in 10.0 mi Calm Calm - N/A   Clear
5:14 PM 95.7 °F 32.2 °F 11% 30.06 in 10.0 mi North 4.6 mph - N/A   Clear
5:34 PM 94.8 °F 30.9 °F 10% 30.06 in 10.0 mi Calm Calm - N/A   Clear
5:54 PM 93.9 °F 32.9 °F 12% 30.05 in 10.0 mi ENE 6.9 mph - N/A   Clear
6:14 PM 90.5 °F 31.8 °F 12% 30.05 in 10.0 mi East 6.9 mph - N/A   Clear
6:34 PM 89.4 °F 33.4 °F 14% 30.05 in 10.0 mi East 6.9 mph - N/A   Clear
6:54 PM 89.6 °F 34.5 °F 14% 30.05 in 10.0 mi ESE 6.9 mph - N/A   Clear
7:14 PM 88.2 °F 36.7 °F 16% 30.05 in 10.0 mi ESE 8.1 mph - N/A   Clear
7:34 PM 85.8 °F 37.4 °F 18% 30.05 in 10.0 mi ESE 9.2 mph - N/A   Clear
7:54 PM 86.4 °F 39.7 °F 19% 30.06 in 10.0 mi South 9.2 mph - N/A   Clear
8:14 PM 83.8 °F 41.5 °F 22% 30.06 in 10.0 mi South 5.8 mph - N/A   Clear
8:34 PM 82.8 °F 42.3 °F 24% 30.07 in 10.0 mi South 5.8 mph - N/A   Clear
8:54 PM 81.5 °F 42.8 °F 25% 30.08 in 10.0 mi SSE 6.9 mph - N/A   Clear
9:14 PM 82.6 °F 42.3 °F 24% 30.08 in 10.0 mi South 9.2 mph - N/A   Clear
9:34 PM 81.7 °F 42.1 °F 25% 30.08 in 10.0 mi South 9.2 mph - N/A   Clear
9:54 PM 82.4 °F 41.2 °F 23% 30.08 in 10.0 mi South 12.7 mph 17.3 mph N/A   Clear
10:14 PM 81.7 °F 41.7 °F 24% 30.08 in 10.0 mi South 10.4 mph - N/A   Clear
10:34 PM 79.5 °F 42.4 °F 27% 30.08 in 10.0 mi South 9.2 mph - N/A   Clear
10:54 PM 78.1 °F 42.8 °F 28% 30.08 in 10.0 mi South 5.8 mph - N/A   Clear
11:14 PM 75.7 °F 43.3 °F 31% 30.08 in 10.0 mi South 5.8 mph - N/A   Clear
11:34 PM 73.0 °F 44.1 °F 35% 30.08 in 10.0 mi SSW 5.8 mph - N/A   Clear
11:54 PM 72.7 °F 44.4 °F 36% 30.08 in 10.0 mi SSW 5.8 mph - N/A   Clear